Time;durP1;ratioP1;P1;durP2;ratioP2;P2;SDS_P1;SDS_P2;PMS_P1;PMS_P2;Temp;Humidity;BMP_temperature;BMP_pressure;BME280_temperature;BME280_humidity;BME280_pressure;Samples;Min_cycle;Max_cycle;Signal;HPM_P1;HPM_P2
2021/10/24 00:01:38;;;;;;;;;;;13.70;99.90;;;;;;4977921;28;845;-54
2021/10/24 00:04:04;;;;;;;;;;;13.70;99.90;;;;;;4977986;28;1011;-54
2021/10/24 00:06:30;;;;;;;;;;;13.70;99.90;;;;;;4977995;28;830;-54
2021/10/24 00:08:56;;;;;;;;;;;13.70;99.90;;;;;;4977853;28;817;-54
2021/10/24 00:11:23;;;;;;;;;;;13.70;99.90;;;;;;4975704;28;1911;-54
2021/10/24 00:13:49;;;;;;;;;;;13.70;99.90;;;;;;4976686;28;897;-54
2021/10/24 00:16:15;;;;;;;;;;;13.70;99.90;;;;;;4974126;28;1017;-54
2021/10/24 00:18:41;;;;;;;;;;;13.70;99.90;;;;;;4975819;28;2513;-54
2021/10/24 00:21:07;;;;;;;;;;;13.60;99.90;;;;;;4986286;28;1085;-54
2021/10/24 00:23:33;;;;;;;;;;;13.60;99.90;;;;;;4970785;28;1379;-54
2021/10/24 00:25:59;;;;;;;;;;;13.60;99.90;;;;;;4971568;28;1227;-54
2021/10/24 00:28:25;;;;;;;;;;;13.60;99.90;;;;;;4971247;28;1315;-54
2021/10/24 00:30:53;;;;;;;;;;;13.60;99.90;;;;;;4971900;28;1966;-54
2021/10/24 00:33:19;;;;;;;;;;;13.60;99.90;;;;;;4976908;28;1291;-54
2021/10/24 00:35:46;;;;;;;;;;;13.60;99.90;;;;;;4968866;28;1050;-54
2021/10/24 00:38:14;;;;;;;;;;;13.60;99.90;;;;;;4980439;28;1468;-54
2021/10/24 00:40:40;;;;;;;;;;;13.50;99.90;;;;;;4977442;28;786;-54
2021/10/24 00:43:06;;;;;;;;;;;13.50;99.90;;;;;;4983600;28;952;-54
2021/10/24 00:45:32;;;;;;;;;;;13.50;99.90;;;;;;4977191;28;882;-54
2021/10/24 00:47:59;;;;;;;;;;;13.50;99.90;;;;;;4976402;28;862;-54
2021/10/24 00:50:27;;;;;;;;;;;13.50;99.90;;;;;;4976169;28;1965;-54
2021/10/24 00:52:54;;;;;;;;;;;13.40;99.90;;;;;;4977196;28;873;-54
2021/10/24 00:55:23;;;;;;;;;;;13.40;99.90;;;;;;4977738;28;1029;-54
2021/10/24 00:57:51;;;;;;;;;;;13.40;99.90;;;;;;4977347;28;815;-54
2021/10/24 01:00:17;;;;;;;;;;;13.40;99.90;;;;;;4977123;28;1028;-54
2021/10/24 01:02:45;;;;;;;;;;;13.40;99.90;;;;;;4977032;28;778;-54
2021/10/24 01:05:13;;;;;;;;;;;13.40;99.90;;;;;;4977235;28;1063;-54
2021/10/24 01:07:42;;;;;;;;;;;13.40;99.90;;;;;;4977190;28;878;-54
2021/10/24 01:10:15;;;;;;;;;;;13.40;99.90;;;;;;4975978;28;1903;-54
2021/10/24 01:12:42;;;;;;;;;;;13.40;99.90;;;;;;4976828;28;1024;-54
2021/10/24 01:15:10;;;;;;;;;;;13.30;99.90;;;;;;4976853;28;822;-54
2021/10/24 01:17:37;;;;;;;;;;;13.30;99.90;;;;;;4976837;28;830;-54
2021/10/24 01:20:05;;;;;;;;;;;13.30;99.90;;;;;;4976892;28;906;-54
2021/10/24 01:22:33;;;;;;;;;;;13.30;99.90;;;;;;4975661;28;940;-54
2021/10/24 01:25:00;;;;;;;;;;;13.30;99.90;;;;;;4980874;28;940;-54
2021/10/24 01:27:27;;;;;;;;;;;13.20;99.90;;;;;;4981063;28;1160;-54
2021/10/24 01:29:54;;;;;;;;;;;13.30;99.90;;;;;;4979422;28;1910;-54
2021/10/24 01:32:21;;;;;;;;;;;13.20;99.90;;;;;;4983346;28;955;-54
2021/10/24 01:34:48;;;;;;;;;;;13.20;99.90;;;;;;4980486;28;813;-54
2021/10/24 01:37:16;;;;;;;;;;;13.20;99.90;;;;;;4978716;28;911;-54
2021/10/24 01:39:43;;;;;;;;;;;13.20;99.90;;;;;;4980435;28;830;-54
2021/10/24 01:42:10;;;;;;;;;;;13.20;99.90;;;;;;4980682;28;912;-54
2021/10/24 01:44:37;;;;;;;;;;;13.20;99.90;;;;;;4980275;28;841;-54
2021/10/24 01:47:04;;;;;;;;;;;13.10;99.90;;;;;;4980713;28;887;-54
2021/10/24 01:49:30;;;;;;;;;;;13.10;99.90;;;;;;4980126;28;849;-54
2021/10/24 01:51:59;;;;;;;;;;;13.10;99.90;;;;;;4980376;28;1903;-54
2021/10/24 01:54:25;;;;;;;;;;;13.10;99.90;;;;;;4980514;28;857;-54
2021/10/24 01:56:52;;;;;;;;;;;13.10;99.90;;;;;;4980676;28;940;-54
2021/10/24 01:59:18;;;;;;;;;;;13.10;99.90;;;;;;4980038;28;853;-54
2021/10/24 02:01:44;;;;;;;;;;;13.00;99.90;;;;;;4979890;28;841;-54
2021/10/24 02:04:10;;;;;;;;;;;13.10;99.90;;;;;;4980198;28;794;-53
2021/10/24 02:06:35;;;;;;;;;;;13.00;99.90;;;;;;4980250;28;850;-54
2021/10/24 02:09:02;;;;;;;;;;;13.00;99.90;;;;;;4979921;28;817;-54
2021/10/24 02:11:28;;;;;;;;;;;13.00;99.90;;;;;;4979543;28;1911;-54
2021/10/24 02:13:56;;;;;;;;;;;13.00;99.90;;;;;;4979714;28;834;-54
2021/10/24 02:16:21;;;;;;;;;;;13.00;99.90;;;;;;4979731;28;846;-53
2021/10/24 02:18:48;;;;;;;;;;;13.00;99.90;;;;;;4979685;28;948;-53
2021/10/24 02:21:14;;;;;;;;;;;13.00;99.90;;;;;;4979831;28;777;-54
2021/10/24 02:23:42;;;;;;;;;;;13.00;99.90;;;;;;4979872;28;855;-54
2021/10/24 02:26:09;;;;;;;;;;;13.00;99.90;;;;;;4979593;28;813;-54
2021/10/24 02:28:36;;;;;;;;;;;13.00;99.90;;;;;;4979390;28;991;-54
2021/10/24 02:31:01;;;;;;;;;;;13.00;99.90;;;;;;4979856;28;1906;-54
2021/10/24 02:33:28;;;;;;;;;;;12.90;99.90;;;;;;4979394;28;809;-54
2021/10/24 02:35:54;;;;;;;;;;;12.90;99.90;;;;;;4978402;28;918;-54
2021/10/24 02:38:20;;;;;;;;;;;12.90;99.90;;;;;;4979453;28;835;-54
2021/10/24 02:40:46;;;;;;;;;;;12.90;99.90;;;;;;4979281;28;1081;-54
2021/10/24 02:43:13;;;;;;;;;;;12.90;99.90;;;;;;4977069;28;1166;-54
2021/10/24 02:45:40;;;;;;;;;;;12.90;99.90;;;;;;4979093;28;936;-54
2021/10/24 02:48:09;;;;;;;;;;;12.90;99.90;;;;;;4979498;28;858;-54
2021/10/24 02:50:36;;;;;;;;;;;12.90;99.90;;;;;;4979038;28;1961;-54
2021/10/24 02:53:01;;;;;;;;;;;12.90;99.90;;;;;;4979171;28;973;-54
2021/10/24 02:55:27;;;;;;;;;;;12.90;99.90;;;;;;4978687;28;1013;-54
2021/10/24 02:57:57;;;;;;;;;;;12.90;99.90;;;;;;4979039;28;842;-54
2021/10/24 03:00:24;;;;;;;;;;;12.90;99.90;;;;;;4978838;28;801;-54
2021/10/24 03:02:50;;;;;;;;;;;12.90;99.90;;;;;;4978956;28;870;-54
2021/10/24 03:05:16;;;;;;;;;;;12.90;99.90;;;;;;4978840;28;868;-54
2021/10/24 03:07:42;;;;;;;;;;;12.80;99.90;;;;;;4979152;28;798;-54
2021/10/24 03:10:09;;;;;;;;;;;12.90;99.90;;;;;;4978953;28;1898;-53
2021/10/24 03:12:35;;;;;;;;;;;12.80;99.90;;;;;;4978600;28;1083;-54
2021/10/24 03:15:02;;;;;;;;;;;12.80;99.90;;;;;;4977422;28;921;-54
2021/10/24 03:17:30;;;;;;;;;;;12.80;99.90;;;;;;4978531;28;858;-54
2021/10/24 03:19:57;;;;;;;;;;;12.80;99.90;;;;;;4978842;28;782;-54
2021/10/24 03:22:23;;;;;;;;;;;12.80;99.90;;;;;;4978535;28;865;-54
2021/10/24 03:24:50;;;;;;;;;;;12.80;99.90;;;;;;4978729;28;869;-54
2021/10/24 03:27:16;;;;;;;;;;;12.70;99.90;;;;;;4978509;28;861;-53
2021/10/24 03:29:43;;;;;;;;;;;12.70;99.90;;;;;;4978617;28;850;-54
2021/10/24 03:32:11;;;;;;;;;;;12.70;99.90;;;;;;4983103;28;1974;-53
2021/10/24 03:34:38;;;;;;;;;;;12.70;99.90;;;;;;4977329;28;930;-53
2021/10/24 03:37:04;;;;;;;;;;;12.70;99.90;;;;;;4978614;28;767;-54
2021/10/24 03:39:31;;;;;;;;;;;12.70;99.90;;;;;;4978515;28;1297;-54
2021/10/24 03:41:56;;;;;;;;;;;12.70;99.90;;;;;;4978529;28;995;-54
2021/10/24 03:44:22;;;;;;;;;;;12.70;99.90;;;;;;4971794;28;923;-54
2021/10/24 03:46:48;;;;;;;;;;;12.70;99.90;;;;;;4978038;28;783;-54
2021/10/24 03:49:16;;;;;;;;;;;12.70;99.90;;;;;;4978129;28;860;-54
2021/10/24 03:51:45;;;;;;;;;;;12.70;99.90;;;;;;4977950;28;1952;-54
2021/10/24 03:54:12;;;;;;;;;;;12.70;99.90;;;;;;4968653;28;1083;-54
2021/10/24 03:56:38;;;;;;;;;;;12.70;99.90;;;;;;4976932;28;920;-54
2021/10/24 03:59:05;;;;;;;;;;;12.60;99.90;;;;;;4977084;28;790;-54
2021/10/24 04:01:32;;;;;;;;;;;12.70;99.90;;;;;;4977835;28;789;-54
2021/10/24 04:03:59;;;;;;;;;;;12.60;99.90;;;;;;4977558;28;922;-54
2021/10/24 04:06:25;;;;;;;;;;;12.60;99.90;;;;;;4977917;28;976;-55
2021/10/24 04:08:51;;;;;;;;;;;12.60;99.90;;;;;;4977685;28;1123;-54
2021/10/24 04:11:19;;;;;;;;;;;12.60;99.90;;;;;;4977169;28;1978;-53
2021/10/24 04:13:45;;;;;;;;;;;12.60;99.90;;;;;;4977554;28;846;-54
2021/10/24 04:16:11;;;;;;;;;;;12.60;99.90;;;;;;4977563;28;841;-54
2021/10/24 04:18:38;;;;;;;;;;;12.60;99.90;;;;;;4977407;28;871;-54
2021/10/24 04:21:05;;;;;;;;;;;12.60;99.90;;;;;;4977797;28;862;-54
2021/10/24 04:23:32;;;;;;;;;;;12.60;99.90;;;;;;4977507;28;889;-54
2021/10/24 04:26:00;;;;;;;;;;;12.60;99.90;;;;;;4977578;28;873;-54
2021/10/24 04:28:26;;;;;;;;;;;12.50;99.90;;;;;;4975689;28;883;-54
2021/10/24 04:30:52;;;;;;;;;;;12.60;99.90;;;;;;4978632;28;1906;-54
2021/10/24 04:33:17;;;;;;;;;;;12.50;99.90;;;;;;4978427;28;837;-54
2021/10/24 04:35:43;;;;;;;;;;;12.60;99.90;;;;;;4977512;28;924;-54
2021/10/24 04:38:09;;;;;;;;;;;12.60;99.90;;;;;;4977311;28;933;-54
2021/10/24 04:40:37;;;;;;;;;;;12.60;99.90;;;;;;4977279;28;779;-54
2021/10/24 04:43:04;;;;;;;;;;;12.60;99.90;;;;;;4974970;28;1193;-55
2021/10/24 04:45:33;;;;;;;;;;;12.60;99.90;;;;;;4977166;28;854;-55
2021/10/24 04:48:00;;;;;;;;;;;12.50;99.90;;;;;;4977259;28;867;-54
2021/10/24 04:50:26;;;;;;;;;;;12.50;99.90;;;;;;4991616;28;1903;-54
2021/10/24 04:52:52;;;;;;;;;;;12.50;99.90;;;;;;4977138;28;914;-54
2021/10/24 04:55:18;;;;;;;;;;;12.50;99.90;;;;;;4976955;28;828;-55
2021/10/24 04:57:44;;;;;;;;;;;12.50;99.90;;;;;;4977883;28;996;-54
2021/10/24 05:00:10;;;;;;;;;;;12.50;99.90;;;;;;4981509;28;1111;-54
2021/10/24 05:02:36;;;;;;;;;;;12.50;99.90;;;;;;4980994;28;800;-54
2021/10/24 05:05:05;;;;;;;;;;;12.50;99.90;;;;;;4981114;28;853;-54
2021/10/24 05:07:31;;;;;;;;;;;12.50;99.90;;;;;;4981466;28;897;-54
2021/10/24 05:09:57;;;;;;;;;;;12.50;99.90;;;;;;4979855;28;934;-54
2021/10/24 05:12:24;;;;;;;;;;;12.50;99.90;;;;;;4980706;28;1961;-54
2021/10/24 05:14:50;;;;;;;;;;;12.50;99.90;;;;;;4981219;28;889;-54
2021/10/24 05:17:18;;;;;;;;;;;12.50;99.90;;;;;;4980723;28;869;-54
2021/10/24 05:19:45;;;;;;;;;;;12.40;99.90;;;;;;4980874;28;920;-54
2021/10/24 05:22:11;;;;;;;;;;;12.50;99.90;;;;;;4981124;28;782;-54
2021/10/24 05:24:37;;;;;;;;;;;12.50;99.90;;;;;;4981055;28;848;-54
2021/10/24 05:27:03;;;;;;;;;;;12.50;99.90;;;;;;4980797;28;831;-54
2021/10/24 05:29:29;;;;;;;;;;;12.50;99.90;;;;;;4980105;28;905;-54
2021/10/24 05:31:56;;;;;;;;;;;12.40;99.90;;;;;;4980926;28;1910;-54
2021/10/24 05:34:23;;;;;;;;;;;12.40;99.90;;;;;;4980702;28;880;-54
2021/10/24 05:36:50;;;;;;;;;;;12.40;99.90;;;;;;4980697;28;918;-54
2021/10/24 05:39:18;;;;;;;;;;;12.40;99.90;;;;;;4980696;28;889;-54
2021/10/24 05:41:45;;;;;;;;;;;12.40;99.90;;;;;;4980627;28;881;-53
2021/10/24 05:44:12;;;;;;;;;;;12.40;99.90;;;;;;4978328;28;1041;-54
2021/10/24 05:46:39;;;;;;;;;;;12.40;99.90;;;;;;4977716;28;947;-54
2021/10/24 05:49:07;;;;;;;;;;;12.40;99.90;;;;;;4978239;28;934;-54
2021/10/24 05:51:33;;;;;;;;;;;12.40;99.90;;;;;;4978111;28;1968;-54
2021/10/24 05:54:00;;;;;;;;;;;12.40;99.90;;;;;;4978331;28;1015;-53
2021/10/24 05:56:26;;;;;;;;;;;12.30;99.90;;;;;;4978277;28;1193;-54
2021/10/24 05:58:53;;;;;;;;;;;12.30;99.90;;;;;;4978284;28;948;-54
2021/10/24 06:01:21;;;;;;;;;;;12.30;99.90;;;;;;4977973;28;895;-54
2021/10/24 06:03:50;;;;;;;;;;;12.30;99.90;;;;;;4968979;28;1072;-54
2021/10/24 06:06:16;;;;;;;;;;;12.30;99.90;;;;;;4959456;28;841;-54
2021/10/24 06:08:43;;;;;;;;;;;12.30;99.90;;;;;;4964516;28;1375;-54
2021/10/24 06:11:28;;;;;;;;;;;12.30;99.90;;;;;;4964146;28;1907;-54
2021/10/24 06:13:56;;;;;;;;;;;12.30;99.90;;;;;;4962598;28;1033;-54
2021/10/24 06:16:23;;;;;;;;;;;12.30;99.90;;;;;;4980843;28;822;-54
2021/10/24 06:18:51;;;;;;;;;;;12.30;99.90;;;;;;4979755;28;865;-54
2021/10/24 06:21:18;;;;;;;;;;;12.30;99.90;;;;;;4979774;28;890;-54
2021/10/24 06:23:44;;;;;;;;;;;12.30;99.90;;;;;;4979054;28;1289;-54
2021/10/24 06:26:11;;;;;;;;;;;12.30;99.90;;;;;;4976879;28;991;-54
2021/10/24 06:28:37;;;;;;;;;;;12.40;99.90;;;;;;4981602;28;1106;-54
2021/10/24 06:31:03;;;;;;;;;;;12.50;99.90;;;;;;4979322;28;1910;-54
2021/10/24 06:33:29;;;;;;;;;;;12.70;99.90;;;;;;4979294;28;743;-54
2021/10/24 06:35:56;;;;;;;;;;;12.90;99.90;;;;;;4978997;28;928;-54
2021/10/24 06:38:23;;;;;;;;;;;13.00;99.90;;;;;;4979379;28;830;-54
2021/10/24 06:40:49;;;;;;;;;;;13.20;99.90;;;;;;4981948;28;1117;-54
2021/10/24 06:43:16;;;;;;;;;;;13.40;99.90;;;;;;4977402;28;846;-55
2021/10/24 06:45:44;;;;;;;;;;;13.50;99.90;;;;;;4961563;28;1029;-54
2021/10/24 06:48:10;;;;;;;;;;;13.60;99.90;;;;;;4993642;28;945;-54
2021/10/24 06:50:36;;;;;;;;;;;13.80;99.90;;;;;;4979134;28;1903;-54
2021/10/24 06:53:02;;;;;;;;;;;14.00;99.90;;;;;;4979098;28;905;-54
2021/10/24 06:55:28;;;;;;;;;;;14.20;99.90;;;;;;4979409;28;885;-54
2021/10/24 06:57:56;;;;;;;;;;;14.30;99.90;;;;;;4977984;28;900;-54
2021/10/24 07:00:26;;;;;;;;;;;14.50;99.90;;;;;;4978939;28;990;-54
2021/10/24 07:02:53;;;;;;;;;;;14.60;99.90;;;;;;4979230;28;955;-54
2021/10/24 07:05:21;;;;;;;;;;;14.50;99.90;;;;;;4978899;28;773;-54
2021/10/24 07:07:47;;;;;;;;;;;14.40;99.90;;;;;;4979305;28;833;-54
2021/10/24 07:10:15;;;;;;;;;;;14.30;99.90;;;;;;4978564;28;865;-54
2021/10/24 07:12:41;;;;;;;;;;;14.30;99.90;;;;;;4978433;28;1976;-54
2021/10/24 07:15:08;;;;;;;;;;;14.30;99.90;;;;;;4978644;28;748;-54
2021/10/24 07:17:34;;;;;;;;;;;14.30;99.90;;;;;;4978566;28;1003;-54
2021/10/24 07:20:01;;;;;;;;;;;14.30;99.90;;;;;;4978728;28;1138;-54
2021/10/24 07:22:28;;;;;;;;;;;14.30;99.90;;;;;;4978433;28;914;-54
2021/10/24 07:24:55;;;;;;;;;;;14.30;99.90;;;;;;4978579;28;842;-54
2021/10/24 07:27:22;;;;;;;;;;;14.20;99.90;;;;;;4978925;28;1144;-54
2021/10/24 07:29:48;;;;;;;;;;;14.20;99.90;;;;;;4978315;28;917;-54
2021/10/24 07:32:15;;;;;;;;;;;14.20;99.90;;;;;;4985452;28;1914;-54
2021/10/24 07:34:41;;;;;;;;;;;14.10;99.90;;;;;;4978980;28;884;-55
2021/10/24 07:37:07;;;;;;;;;;;14.10;99.90;;;;;;4978367;28;841;-54
2021/10/24 07:39:34;;;;;;;;;;;14.10;99.90;;;;;;4973660;28;1053;-54
2021/10/24 07:42:00;;;;;;;;;;;14.10;99.90;;;;;;4969237;28;1212;-54
2021/10/24 07:44:27;;;;;;;;;;;14.00;99.90;;;;;;4970090;28;1216;-54
2021/10/24 07:46:56;;;;;;;;;;;14.00;99.90;;;;;;4968719;28;1211;-54
2021/10/24 07:49:26;;;;;;;;;;;14.00;99.90;;;;;;4971050;28;1200;-54
2021/10/24 07:51:53;;;;;;;;;;;13.90;99.90;;;;;;4969515;28;1974;-54
2021/10/24 07:54:20;;;;;;;;;;;14.00;99.90;;;;;;4985726;28;1267;-54
2021/10/24 07:56:48;;;;;;;;;;;14.20;99.90;;;;;;4968325;28;1255;-54
2021/10/24 07:59:15;;;;;;;;;;;14.10;99.90;;;;;;4978445;28;1263;-54
2021/10/24 08:01:41;;;;;;;;;;;14.00;99.90;;;;;;4973814;28;1354;-54
2021/10/24 08:04:07;;;;;;;;;;;13.90;99.90;;;;;;4977253;28;1106;-54
2021/10/24 08:06:33;;;;;;;;;;;14.00;99.90;;;;;;4968028;28;1228;-54
2021/10/24 08:09:04;;;;;;;;;;;15.00;99.90;;;;;;4971266;28;1347;-54
2021/10/24 08:11:30;;;;;;;;;;;16.50;99.90;;;;;;4967429;28;1977;-53
2021/10/24 08:14:01;;;;;;;;;;;18.20;99.90;;;;;;4963217;28;1204;-54
2021/10/24 08:16:28;;;;;;;;;;;20.40;99.90;;;;;;4968884;28;1279;-54
2021/10/24 08:18:56;;;;;;;;;;;21.60;99.90;;;;;;4968562;28;1157;-54
2021/10/24 08:21:23;;;;;;;;;;;21.10;99.90;;;;;;4964959;28;1141;-54
2021/10/24 08:23:50;;;;;;;;;;;20.20;99.90;;;;;;4977392;28;841;-54
2021/10/24 08:26:17;;;;;;;;;;;19.40;99.90;;;;;;4970712;28;1136;-52
2021/10/24 08:28:44;;;;;;;;;;;19.00;99.90;;;;;;4974596;28;1304;-52
2021/10/24 08:31:12;;;;;;;;;;;18.30;99.90;;;;;;4976030;28;1964;-52
2021/10/24 08:33:38;;;;;;;;;;;18.00;99.90;;;;;;4976242;28;1137;-51
2021/10/24 08:36:04;;;;;;;;;;;17.90;99.90;;;;;;4977674;28;991;-52
2021/10/24 08:38:31;;;;;;;;;;;18.00;99.90;;;;;;4977741;28;957;-52
2021/10/24 08:40:58;;;;;;;;;;;18.00;99.90;;;;;;4977911;28;913;-51
2021/10/24 08:43:30;;;;;;;;;;;18.10;99.90;;;;;;4973252;28;1112;-52
2021/10/24 08:45:57;;;;;;;;;;;18.20;99.90;;;;;;4975826;28;2050;-51
2021/10/24 08:48:23;;;;;;;;;;;18.30;99.90;;;;;;4977005;28;1002;-51
2021/10/24 08:50:50;;;;;;;;;;;18.30;99.90;;;;;;4976269;28;1910;-53
2021/10/24 08:53:18;;;;;;;;;;;18.40;99.90;;;;;;4974521;28;981;-53
2021/10/24 08:55:44;;;;;;;;;;;18.40;99.90;;;;;;4977535;28;1325;-52
2021/10/24 08:58:10;;;;;;;;;;;18.60;99.90;;;;;;4976312;28;1500;-53
2021/10/24 09:00:37;;;;;;;;;;;18.60;99.90;;;;;;4976930;28;1039;-52
2021/10/24 09:03:07;;;;;;;;;;;18.70;99.90;;;;;;4976996;28;767;-52
2021/10/24 09:05:36;;;;;;;;;;;18.70;99.90;;;;;;4977647;28;1034;-52
2021/10/24 09:08:03;;;;;;;;;;;18.90;99.90;;;;;;4977607;28;858;-52
2021/10/24 09:10:38;;;;;;;;;;;19.00;99.90;;;;;;4967209;28;1264;-52
2021/10/24 09:13:08;;;;;;;;;;;19.20;99.90;;;;;;4970138;28;1898;-53
2021/10/24 09:15:44;;;;;;;;;;;19.10;99.90;;;;;;4972411;28;1049;-54
2021/10/24 09:18:14;;;;;;;;;;;19.20;99.90;;;;;;4967932;28;1164;-53
2021/10/24 09:20:41;;;;;;;;;;;19.20;99.90;;;;;;4970956;28;831;-53
2021/10/24 09:23:07;;;;;;;;;;;19.30;99.90;;;;;;4977309;28;895;-53
2021/10/24 09:25:33;;;;;;;;;;;19.40;99.90;;;;;;4976112;28;1012;-52
2021/10/24 09:28:03;;;;;;;;;;;19.40;99.90;;;;;;4968529;28;1314;-53
2021/10/24 09:30:34;;;;;;;;;;;19.50;99.90;;;;;;4971538;28;892;-53
2021/10/24 09:33:04;;;;;;;;;;;19.30;99.90;;;;;;4971296;28;1902;-53
2021/10/24 09:35:32;;;;;;;;;;;19.00;99.90;;;;;;4967817;28;1851;-50
2021/10/24 09:38:20;;;;;;;;;;;19.00;99.90;;;;;;4963985;28;1105;-52
2021/10/24 09:40:50;;;;;;;;;;;19.30;99.90;;;;;;4962887;28;1742;-54
2021/10/24 09:43:24;;;;;;;;;;;19.50;99.90;;;;;;4968810;28;1241;-53
2021/10/24 09:46:10;;;;;;;;;;;19.70;99.90;;;;;;4973287;28;1685;-53
2021/10/24 09:48:44;;;;;;;;;;;19.70;99.90;;;;;;4970025;28;1498;-53
2021/10/24 09:51:11;;;;;;;;;;;19.70;99.90;;;;;;4979061;28;1910;-53
2021/10/24 09:53:38;;;;;;;;;;;19.40;99.90;;;;;;4979314;28;814;-54
2021/10/24 09:56:26;;;;;;;;;;;18.80;99.90;;;;;;4980067;28;904;-53
2021/10/24 09:58:58;;;;;;;;;;;18.30;99.90;;;;;;4994422;28;1061;-53
2021/10/24 10:01:24;;;;;;;;;;;17.80;99.90;;;;;;4980411;28;882;-53
2021/10/24 10:03:50;;;;;;;;;;;17.60;99.90;;;;;;4994401;28;1024;-53
2021/10/24 10:06:20;;;;;;;;;;;17.50;99.90;;;;;;4980471;28;1032;-53
2021/10/24 10:08:46;;;;;;;;;;;17.30;99.90;;;;;;4979675;28;810;-53
2021/10/24 10:11:28;;;;;;;;;;;17.20;99.90;;;;;;4980281;28;1976;-53
2021/10/24 10:14:15;;;;;;;;;;;17.10;99.90;;;;;;4978386;28;915;-53
2021/10/24 10:16:42;;;;;;;;;;;17.10;99.90;;;;;;4979502;28;1230;-53
2021/10/24 10:19:09;;;;;;;;;;;17.00;99.90;;;;;;4979907;28;838;-53
2021/10/24 10:21:54;;;;;;;;;;;17.00;99.90;;;;;;4979408;28;873;-53
2021/10/24 10:24:38;;;;;;;;;;;17.00;99.90;;;;;;4979587;28;902;-54
2021/10/24 10:27:23;;;;;;;;;;;17.00;99.90;;;;;;4979529;28;770;-53
2021/10/24 10:29:50;;;;;;;;;;;17.00;99.90;;;;;;4979608;28;887;-54
2021/10/24 10:32:20;;;;;;;;;;;17.00;99.90;;;;;;4979502;28;1979;-53
2021/10/24 10:34:59;;;;;;;;;;;17.00;99.90;;;;;;4979578;28;899;-53
2021/10/24 10:37:48;;;;;;;;;;;17.00;99.90;;;;;;4993959;28;1158;-53
2021/10/24 10:40:18;;;;;;;;;;;17.10;99.90;;;;;;4978255;28;1244;-53
2021/10/24 10:42:45;;;;;;;;;;;17.10;99.90;;;;;;4979371;28;878;-53
2021/10/24 10:45:14;;;;;;;;;;;17.10;99.90;;;;;;4979488;28;864;-53
2021/10/24 10:48:04;;;;;;;;;;;17.20;99.90;;;;;;4979602;28;849;-54
2021/10/24 10:50:45;;;;;;;;;;;17.20;99.90;;;;;;4993760;28;1034;-53
2021/10/24 10:53:16;;;;;;;;;;;17.20;99.90;;;;;;4979370;28;1914;-53
2021/10/24 10:56:00;;;;;;;;;;;17.20;99.90;;;;;;4978448;28;893;-53
2021/10/24 10:58:45;;;;;;;;;;;17.20;99.90;;;;;;4979151;28;916;-51
2021/10/24 11:01:17;;;;;;;;;;;17.30;99.90;;;;;;4979265;28;877;-51
2021/10/24 11:03:47;;;;;;;;;;;17.30;99.90;;;;;;4979408;28;1037;-51
2021/10/24 11:06:22;;;;;;;;;;;17.30;99.90;;;;;;4973557;28;1033;-51
2021/10/24 11:08:52;;;;;;;;;;;17.30;99.90;;;;;;4979183;28;979;-51
2021/10/24 11:11:46;;;;;;;;;;;17.30;99.90;;;;;;4978776;28;1961;-51
2021/10/24 11:14:13;;;;;;;;;;;17.30;99.90;;;;;;4978843;28;857;-50
2021/10/24 11:16:39;;;;;;;;;;;17.30;99.90;;;;;;4981745;28;987;-50
2021/10/24 11:19:23;;;;;;;;;;;17.30;99.90;;;;;;4979825;28;983;-50
2021/10/24 11:21:51;;;;;;;;;;;17.30;99.90;;;;;;4978660;28;841;-50
2021/10/24 11:24:19;;;;;;;;;;;17.30;99.90;;;;;;4978675;28;825;-50
2021/10/24 11:26:53;;;;;;;;;;;17.30;99.90;;;;;;4978820;28;800;-50
2021/10/24 11:29:20;;;;;;;;;;;17.30;99.90;;;;;;4978442;28;1312;-50
2021/10/24 11:31:46;;;;;;;;;;;17.20;99.90;;;;;;4978419;28;1910;-50
2021/10/24 11:34:29;;;;;;;;;;;17.20;99.90;;;;;;4978108;28;1087;-50
2021/10/24 11:36:55;;;;;;;;;;;17.20;99.90;;;;;;4977553;28;857;-50
2021/10/24 11:39:25;;;;;;;;;;;17.20;99.90;;;;;;4978438;28;1001;-50
2021/10/24 11:42:12;;;;;;;;;;;17.20;99.90;;;;;;4975983;28;912;-50
2021/10/24 11:44:39;;;;;;;;;;;17.20;99.90;;;;;;4978012;28;1454;-51
2021/10/24 11:47:08;;;;;;;;;;;17.10;99.90;;;;;;4970241;28;1335;-51
2021/10/24 11:49:46;;;;;;;;;;;17.10;99.90;;;;;;4975428;28;1134;-51
2021/10/24 11:52:31;;;;;;;;;;;17.00;99.90;;;;;;4980510;28;1968;-52
2021/10/24 11:54:58;;;;;;;;;;;16.90;99.90;;;;;;4978437;28;882;-52
2021/10/24 11:57:35;;;;;;;;;;;16.80;99.90;;;;;;4978232;28;902;-52
2021/10/24 12:03:04;;;;;;;;;;;16.80;99.90;;;;;;4976234;28;1280;-50
2021/10/24 12:05:31;;;;;;;;;;;16.70;99.90;;;;;;4980741;28;1137;-52
2021/10/24 12:08:00;;;;;;;;;;;16.70;99.90;;;;;;4978433;28;1336;-52
2021/10/24 12:11:01;;;;;;;;;;;16.70;99.90;;;;;;4979329;28;1154;-52
2021/10/24 12:13:34;;;;;;;;;;;16.70;99.90;;;;;;4957046;28;1910;-52
2021/10/24 12:16:01;;;;;;;;;;;16.70;99.90;;;;;;4973350;28;974;-52
2021/10/24 12:18:28;;;;;;;;;;;16.70;99.90;;;;;;4977854;28;953;-51
2021/10/24 12:21:12;;;;;;;;;;;16.70;99.90;;;;;;4977997;28;1018;-52
2021/10/24 12:23:38;;;;;;;;;;;16.70;99.90;;;;;;4977858;28;850;-52
2021/10/24 12:26:06;;;;;;;;;;;16.60;99.90;;;;;;4978954;28;983;-51
2021/10/24 12:28:36;;;;;;;;;;;16.60;99.90;;;;;;4977503;28;859;-52
2021/10/24 12:31:04;;;;;;;;;;;16.50;99.90;;;;;;4977320;28;938;-52
2021/10/24 12:33:41;;;;;;;;;;;16.50;99.90;;;;;;4977253;28;1968;-51
2021/10/24 12:36:11;;;;;;;;;;;16.50;99.90;;;;;;4977726;28;826;-52
2021/10/24 12:38:55;;;;;;;;;;;16.40;99.90;;;;;;4975623;28;1241;-52
2021/10/24 12:41:37;;;;;;;;;;;16.40;99.90;;;;;;4973749;28;992;-53
2021/10/24 12:44:04;;;;;;;;;;;16.30;99.90;;;;;;4977884;28;873;-52
2021/10/24 12:46:31;;;;;;;;;;;16.30;99.90;;;;;;4976862;28;821;-52
2021/10/24 12:48:58;;;;;;;;;;;16.10;99.90;;;;;;4977304;28;866;-52
2021/10/24 12:51:29;;;;;;;;;;;16.00;99.90;;;;;;4976658;28;1895;-53
2021/10/24 12:53:58;;;;;;;;;;;15.90;99.90;;;;;;4973527;28;1054;-53
2021/10/24 12:56:25;;;;;;;;;;;15.90;99.90;;;;;;4967071;28;1394;-54
2021/10/24 12:58:52;;;;;;;;;;;15.90;99.90;;;;;;4974655;28;1160;-54
2021/10/24 13:01:23;;;;;;;;;;;16.00;99.90;;;;;;4969258;28;1088;-53
2021/10/24 13:03:53;;;;;;;;;;;16.60;99.90;;;;;;4974744;28;986;-54
2021/10/24 13:06:24;;;;;;;;;;;17.50;99.90;;;;;;4969382;28;1078;-54
2021/10/24 13:08:52;;;;;;;;;;;17.90;99.90;;;;;;4968262;28;1238;-57
2021/10/24 13:11:19;;;;;;;;;;;18.30;99.90;;;;;;4976065;28;1094;-54
2021/10/24 13:13:47;;;;;;;;;;;18.60;99.90;;;;;;4969867;28;1119;-54
2021/10/24 13:16:15;;;;;;;;;;;18.90;99.90;;;;;;4975245;28;1322;-54
2021/10/24 13:18:41;;;;;;;;;;;19.00;99.90;;;;;;4966062;28;1288;-57
2021/10/24 13:21:11;;;;;;;;;;;19.20;99.90;;;;;;4975935;28;1665;-55
2021/10/24 13:23:37;;;;;;;;;;;19.30;99.90;;;;;;4959967;28;1769;-55
2021/10/24 13:26:04;;;;;;;;;;;19.30;99.90;;;;;;4974139;28;1613;-59
2021/10/24 13:28:30;;;;;;;;;;;19.10;99.90;;;;;;4975016;28;1045;-56
2021/10/24 13:30:57;;;;;;;;;;;18.90;99.90;;;;;;4959706;29;1606;-56
2021/10/24 13:33:25;;;;;;;;;;;18.80;99.90;;;;;;4972094;28;1903;-56
2021/10/24 13:35:53;;;;;;;;;;;18.50;99.90;;;;;;4967668;28;1954;-56
2021/10/24 13:38:20;;;;;;;;;;;18.40;99.90;;;;;;4942199;28;1525;-57
2021/10/24 13:40:48;;;;;;;;;;;18.50;99.90;;;;;;4967158;28;1146;-57
2021/10/24 13:43:14;;;;;;;;;;;18.60;99.90;;;;;;4956761;28;1408;-57
2021/10/24 13:45:40;;;;;;;;;;;18.60;99.90;;;;;;4967014;28;1136;-54
2021/10/24 13:48:08;;;;;;;;;;;18.70;99.90;;;;;;4970769;28;1128;-53
2021/10/24 13:50:34;;;;;;;;;;;18.70;99.90;;;;;;4974816;28;1209;-53
2021/10/24 13:53:00;;;;;;;;;;;18.70;99.90;;;;;;4978135;28;1975;-53
2021/10/24 13:55:26;;;;;;;;;;;18.50;99.90;;;;;;4979366;28;861;-53
2021/10/24 13:57:52;;;;;;;;;;;18.10;99.90;;;;;;4979478;28;841;-54
2021/10/24 14:00:18;;;;;;;;;;;17.80;99.90;;;;;;4979519;28;1172;-54
2021/10/24 14:02:48;;;;;;;;;;;17.60;99.90;;;;;;4979836;28;990;-54
2021/10/24 14:05:14;;;;;;;;;;;17.40;99.90;;;;;;4979885;28;955;-53
2021/10/24 14:07:41;;;;;;;;;;;17.20;99.90;;;;;;4979584;28;874;-56
2021/10/24 14:10:07;;;;;;;;;;;17.10;99.90;;;;;;4979432;28;1223;-55
2021/10/24 14:12:33;;;;;;;;;;;17.00;99.90;;;;;;4978803;28;2032;-56
2021/10/24 14:14:59;;;;;;;;;;;16.90;99.90;;;;;;4979369;28;923;-56
2021/10/24 14:17:25;;;;;;;;;;;16.80;99.90;;;;;;4979318;28;918;-56
2021/10/24 14:19:52;;;;;;;;;;;16.80;99.90;;;;;;4979623;28;800;-55
2021/10/24 14:22:18;;;;;;;;;;;16.70;99.90;;;;;;4979227;28;890;-56
2021/10/24 14:24:44;;;;;;;;;;;16.60;99.90;;;;;;4979608;28;1134;-55
2021/10/24 14:27:10;;;;;;;;;;;16.60;99.90;;;;;;4979356;28;853;-55
2021/10/24 14:29:39;;;;;;;;;;;16.50;99.90;;;;;;4979492;28;873;-55
2021/10/24 14:32:06;;;;;;;;;;;16.50;99.90;;;;;;4978405;28;1910;-56
2021/10/24 14:34:32;;;;;;;;;;;16.40;99.90;;;;;;4977655;28;1193;-55
2021/10/24 14:36:58;;;;;;;;;;;16.40;99.90;;;;;;4978937;28;951;-55
2021/10/24 14:39:24;;;;;;;;;;;16.30;99.90;;;;;;4979685;28;940;-56
2021/10/24 14:41:50;;;;;;;;;;;16.30;99.90;;;;;;4979135;28;921;-55
2021/10/24 14:44:16;;;;;;;;;;;16.30;99.90;;;;;;4978397;28;911;-55
2021/10/24 14:46:42;;;;;;;;;;;16.20;99.90;;;;;;4977963;28;890;-55